CCA126 ZBAA-ZSCN
Flight info
| Callsign | CCA126 |
|---|---|
| Flight time | N/A |
| Altitude | 40100 |
| Route | RUSDO9Z RUSDO W45 IPLEV/K0891S1250 B458 DADGA/K0889S1220 W37 HG/K0893S1250 W50 XSH W105 PEXEK |
| Aircraft | A359/H-SDE2E3GHIJ3J4J5LM1ORWXY/LB1D1 |
Departure
| Time | N/A |
|---|---|
| Airport | Beijing Capital International Airport (ZBAA) |
Arrival
| Time | 2026-04-19 09:50 |
|---|---|
| Airport | Nanchang Changbei International Airport (ZSCN) |
| Time | Latitude | Longitude | Altitude | Speed | Heading |
|---|---|---|---|---|---|
| 2026-04-19 08:25 | 36.22782 | 115.01555 | 40828 ft | 488 kts | 193° |
| 2026-04-19 08:26 | 36.16024 | 115.00805 | 40813 ft | 487 kts | 193° |
| 2026-04-19 08:26 | 36.09267 | 115.00085 | 40813 ft | 487 kts | 193° |
| 2026-04-19 08:27 | 36.03662 | 114.99507 | 40813 ft | 486 kts | 193° |
| 2026-04-19 08:27 | 35.96904 | 114.98818 | 40809 ft | 490 kts | 192° |
| 2026-04-19 08:28 | 35.90067 | 114.98119 | 40815 ft | 496 kts | 192° |
| 2026-04-19 08:28 | 35.83186 | 114.97424 | 40326 ft | 497 kts | 192° |
| 2026-04-19 08:29 | 35.79726 | 114.97074 | 39994 ft | 498 kts | 192° |
| 2026-04-19 08:29 | 35.76278 | 114.96725 | 39913 ft | 499 kts | 192° |
| 2026-04-19 08:29 | 35.69329 | 114.96023 | 39916 ft | 500 kts | 192° |
| 2026-04-19 08:30 | 35.62398 | 114.95327 | 39916 ft | 499 kts | 192° |
| 2026-04-19 08:30 | 35.55525 | 114.94636 | 39917 ft | 499 kts | 192° |
| 2026-04-19 08:31 | 35.48638 | 114.93943 | 39904 ft | 498 kts | 192° |
| 2026-04-19 08:31 | 35.41723 | 114.93250 | 39921 ft | 496 kts | 192° |
| 2026-04-19 08:32 | 35.34849 | 114.92561 | 39919 ft | 495 kts | 192° |
| 2026-04-19 08:32 | 35.27976 | 114.91872 | 39928 ft | 495 kts | 192° |
| 2026-04-19 08:33 | 35.21096 | 114.91184 | 39932 ft | 496 kts | 193° |
| 2026-04-19 08:33 | 35.14222 | 114.90497 | 39933 ft | 496 kts | 193° |
| 2026-04-19 08:34 | 35.07325 | 114.89811 | 39939 ft | 496 kts | 193° |
| 2026-04-19 08:34 | 35.00487 | 114.89132 | 39938 ft | 497 kts | 193° |
| 2026-04-19 08:35 | 34.93586 | 114.88447 | 39945 ft | 497 kts | 193° |
| 2026-04-19 08:35 | 34.86677 | 114.87762 | 39937 ft | 498 kts | 193° |
| 2026-04-19 08:36 | 34.79779 | 114.87081 | 39946 ft | 498 kts | 193° |
| 2026-04-19 08:36 | 34.72877 | 114.86400 | 39946 ft | 498 kts | 193° |
| 2026-04-19 08:37 | 34.65973 | 114.85720 | 39950 ft | 498 kts | 193° |
| 2026-04-19 08:37 | 34.59068 | 114.85040 | 39933 ft | 498 kts | 193° |
| 2026-04-19 08:38 | 34.52150 | 114.84360 | 39947 ft | 498 kts | 193° |
| 2026-04-19 08:38 | 34.45289 | 114.83687 | 39955 ft | 498 kts | 193° |
| 2026-04-19 08:39 | 34.38375 | 114.83011 | 39954 ft | 498 kts | 193° |
| 2026-04-19 08:39 | 34.31458 | 114.82335 | 39950 ft | 498 kts | 193° |
| 2026-04-19 08:40 | 34.24547 | 114.81660 | 39954 ft | 499 kts | 193° |
| 2026-04-19 08:40 | 34.17620 | 114.80986 | 39951 ft | 499 kts | 193° |
| 2026-04-19 08:41 | 34.10691 | 114.80324 | 39948 ft | 499 kts | 193° |
| 2026-04-19 08:41 | 34.03772 | 114.79655 | 39953 ft | 499 kts | 193° |
| 2026-04-19 08:42 | 33.96836 | 114.78986 | 39956 ft | 500 kts | 193° |
| 2026-04-19 08:42 | 33.89905 | 114.78322 | 39956 ft | 500 kts | 193° |
| 2026-04-19 08:43 | 33.82975 | 114.77662 | 39959 ft | 500 kts | 193° |
| 2026-04-19 08:43 | 33.76089 | 114.76989 | 39959 ft | 499 kts | 194° |
| 2026-04-19 08:44 | 33.69160 | 114.76285 | 39956 ft | 499 kts | 193° |
| 2026-04-19 08:44 | 33.62234 | 114.75629 | 39954 ft | 500 kts | 193° |
| 2026-04-19 08:45 | 33.55279 | 114.74980 | 39957 ft | 501 kts | 193° |
| 2026-04-19 08:45 | 33.48339 | 114.74263 | 39956 ft | 500 kts | 193° |
| 2026-04-19 08:46 | 33.41391 | 114.73563 | 39935 ft | 501 kts | 193° |
| 2026-04-19 08:46 | 33.34419 | 114.72885 | 39955 ft | 503 kts | 192° |
| 2026-04-19 08:47 | 33.27428 | 114.72213 | 39954 ft | 504 kts | 192° |
| 2026-04-19 08:47 | 33.20435 | 114.71543 | 39951 ft | 504 kts | 192° |
| 2026-04-19 08:48 | 33.13429 | 114.70866 | 39948 ft | 505 kts | 193° |
| 2026-04-19 08:48 | 33.06411 | 114.70164 | 39945 ft | 506 kts | 193° |
| 2026-04-19 08:49 | 32.99435 | 114.69471 | 39945 ft | 506 kts | 193° |
| 2026-04-19 08:49 | 32.92420 | 114.68781 | 39936 ft | 506 kts | 193° |
| 2026-04-19 08:50 | 32.85392 | 114.68100 | 39943 ft | 507 kts | 193° |
| 2026-04-19 08:50 | 32.78371 | 114.67438 | 39942 ft | 507 kts | 193° |
| 2026-04-19 08:51 | 32.71333 | 114.66775 | 39943 ft | 506 kts | 193° |
| 2026-04-19 08:51 | 32.64309 | 114.66113 | 39945 ft | 506 kts | 193° |
| 2026-04-19 08:52 | 32.57286 | 114.65451 | 39939 ft | 506 kts | 193° |
| 2026-04-19 08:52 | 32.50255 | 114.64791 | 39944 ft | 506 kts | 193° |
| 2026-04-19 08:53 | 32.43274 | 114.64136 | 39935 ft | 506 kts | 193° |
| 2026-04-19 08:53 | 32.36248 | 114.63480 | 39944 ft | 506 kts | 193° |
| 2026-04-19 08:54 | 32.29233 | 114.62802 | 39938 ft | 506 kts | 193° |
| 2026-04-19 08:54 | 32.22215 | 114.62108 | 39924 ft | 506 kts | 193° |
| 2026-04-19 08:55 | 32.15197 | 114.61422 | 39943 ft | 505 kts | 193° |
| 2026-04-19 08:55 | 32.08199 | 114.60742 | 39947 ft | 504 kts | 193° |
| 2026-04-19 08:56 | 32.01210 | 114.60065 | 39949 ft | 504 kts | 193° |
| 2026-04-19 08:56 | 31.94214 | 114.59389 | 39943 ft | 503 kts | 192° |
| 2026-04-19 08:57 | 31.87248 | 114.58718 | 39948 ft | 502 kts | 192° |
| 2026-04-19 08:57 | 31.80303 | 114.58048 | 39955 ft | 501 kts | 192° |
| 2026-04-19 08:58 | 31.73350 | 114.57377 | 39957 ft | 501 kts | 192° |
| 2026-04-19 08:58 | 31.66439 | 114.56713 | 39954 ft | 500 kts | 192° |
| 2026-04-19 08:59 | 31.59486 | 114.56054 | 39957 ft | 500 kts | 192° |
| 2026-04-19 08:59 | 31.52552 | 114.55388 | 39960 ft | 500 kts | 192° |
| 2026-04-19 09:00 | 31.45618 | 114.54722 | 39960 ft | 500 kts | 192° |
| 2026-04-19 09:00 | 31.38681 | 114.54060 | 39961 ft | 500 kts | 192° |
| 2026-04-19 09:01 | 31.31757 | 114.53401 | 39956 ft | 500 kts | 192° |
| 2026-04-19 09:01 | 31.24835 | 114.52664 | 39944 ft | 493 kts | 198° |
| 2026-04-19 09:02 | 31.21597 | 114.51585 | 39958 ft | 480 kts | 209° |
| 2026-04-19 09:02 | 31.18550 | 114.50032 | 39958 ft | 475 kts | 213° |
| 2026-04-19 09:02 | 31.12711 | 114.46497 | 39957 ft | 473 kts | 215° |
| 2026-04-19 09:03 | 31.06852 | 114.42991 | 39958 ft | 474 kts | 214° |
| 2026-04-19 09:03 | 31.00890 | 114.39632 | 39948 ft | 477 kts | 212° |
| 2026-04-19 09:04 | 30.97672 | 114.38515 | 39948 ft | 494 kts | 196° |
| 2026-04-19 09:04 | 30.94184 | 114.38410 | 39949 ft | 510 kts | 181° |
| 2026-04-19 09:04 | 30.90732 | 114.39344 | 39955 ft | 525 kts | 166° |
| 2026-04-19 09:04 | 30.87435 | 114.41322 | 39952 ft | 540 kts | 150° |
| 2026-04-19 09:05 | 30.84588 | 114.44218 | 39952 ft | 551 kts | 135° |
| 2026-04-19 09:05 | 30.82358 | 114.47885 | 39952 ft | 559 kts | 120° |
| 2026-04-19 09:05 | 30.79116 | 114.56103 | 39958 ft | 563 kts | 109° |
| 2026-04-19 09:06 | 30.76243 | 114.64575 | 39956 ft | 563 kts | 116° |
| 2026-04-19 09:06 | 30.72573 | 114.72600 | 39956 ft | 561 kts | 123° |
| 2026-04-19 09:07 | 30.68813 | 114.79702 | 39956 ft | 560 kts | 125° |
| 2026-04-19 09:07 | 30.64652 | 114.87345 | 39950 ft | 560 kts | 124° |
| 2026-04-19 09:08 | 30.60513 | 114.95004 | 39919 ft | 559 kts | 124° |
| 2026-04-19 09:08 | 30.58451 | 114.98843 | 39670 ft | 559 kts | 124° |
| 2026-04-19 09:08 | 30.56395 | 115.02677 | 39232 ft | 560 kts | 124° |
| 2026-04-19 09:09 | 30.54343 | 115.06504 | 38776 ft | 562 kts | 124° |
| 2026-04-19 09:09 | 30.52268 | 115.10370 | 38273 ft | 563 kts | 123° |
| 2026-04-19 09:09 | 30.50195 | 115.14229 | 37762 ft | 564 kts | 123° |
| 2026-04-19 09:09 | 30.48114 | 115.18098 | 37260 ft | 564 kts | 123° |
| 2026-04-19 09:10 | 30.45947 | 115.21874 | 36743 ft | 563 kts | 130° |
| 2026-04-19 09:10 | 30.43300 | 115.25194 | 36285 ft | 558 kts | 142° |
| 2026-04-19 09:10 | 30.40190 | 115.27820 | 35795 ft | 550 kts | 155° |
| 2026-04-19 09:10 | 30.36827 | 115.29737 | 35334 ft | 545 kts | 162° |
| 2026-04-19 09:11 | 30.33322 | 115.31411 | 34853 ft | 544 kts | 164° |
| 2026-04-19 09:11 | 30.29785 | 115.32962 | 34358 ft | 544 kts | 165° |
| 2026-04-19 09:11 | 30.26228 | 115.34474 | 33851 ft | 545 kts | 165° |
| 2026-04-19 09:11 | 30.22673 | 115.35987 | 33264 ft | 543 kts | 165° |
| 2026-04-19 09:12 | 30.19527 | 115.37342 | 32775 ft | 540 kts | 164° |
| 2026-04-19 09:12 | 30.16008 | 115.38875 | 32195 ft | 538 kts | 163° |
| 2026-04-19 09:12 | 30.12565 | 115.40387 | 31658 ft | 536 kts | 163° |
| 2026-04-19 09:12 | 30.09086 | 115.41922 | 31121 ft | 535 kts | 163° |
| 2026-04-19 09:13 | 30.05607 | 115.43459 | 30595 ft | 535 kts | 162° |
| 2026-04-19 09:13 | 30.02127 | 115.44997 | 30060 ft | 534 kts | 162° |
| 2026-04-19 09:13 | 29.98659 | 115.46529 | 29423 ft | 534 kts | 162° |
| 2026-04-19 09:13 | 29.95194 | 115.48058 | 28690 ft | 531 kts | 162° |
| 2026-04-19 09:14 | 29.91762 | 115.49573 | 27952 ft | 526 kts | 162° |
| 2026-04-19 09:14 | 29.88367 | 115.51069 | 27238 ft | 520 kts | 161° |
| 2026-04-19 09:14 | 29.85000 | 115.52552 | 26543 ft | 515 kts | 161° |
| 2026-04-19 09:14 | 29.81655 | 115.54023 | 25856 ft | 510 kts | 161° |
| 2026-04-19 09:15 | 29.78370 | 115.55467 | 25195 ft | 504 kts | 161° |
| 2026-04-19 09:15 | 29.75111 | 115.56898 | 24546 ft | 499 kts | 161° |
| 2026-04-19 09:15 | 29.68672 | 115.59714 | 23241 ft | 489 kts | 160° |
| 2026-04-19 09:16 | 29.65504 | 115.61099 | 22513 ft | 484 kts | 160° |
| 2026-04-19 09:16 | 29.62379 | 115.62466 | 21795 ft | 479 kts | 160° |
| 2026-04-19 09:16 | 29.59284 | 115.63820 | 21097 ft | 473 kts | 160° |
| 2026-04-19 09:16 | 29.56262 | 115.65149 | 20431 ft | 468 kts | 160° |
| 2026-04-19 09:17 | 29.53200 | 115.66489 | 19757 ft | 463 kts | 160° |
| 2026-04-19 09:17 | 29.50207 | 115.67797 | 19105 ft | 458 kts | 160° |
| 2026-04-19 09:17 | 29.47278 | 115.69077 | 18474 ft | 453 kts | 160° |
| 2026-04-19 09:17 | 29.44347 | 115.70358 | 17796 ft | 448 kts | 160° |
| 2026-04-19 09:18 | 29.41409 | 115.71640 | 17115 ft | 442 kts | 160° |
| 2026-04-19 09:18 | 29.38551 | 115.72887 | 16502 ft | 437 kts | 160° |
| 2026-04-19 09:18 | 29.35765 | 115.74103 | 15901 ft | 433 kts | 160° |
| 2026-04-19 09:18 | 29.32955 | 115.75329 | 15300 ft | 428 kts | 159° |
| 2026-04-19 09:19 | 29.30156 | 115.76433 | 14712 ft | 424 kts | 163° |
| 2026-04-19 09:19 | 29.27333 | 115.77375 | 14138 ft | 420 kts | 164° |
| 2026-04-19 09:19 | 29.24549 | 115.78308 | 13557 ft | 415 kts | 163° |
| 2026-04-19 09:19 | 29.21800 | 115.79250 | 12919 ft | 411 kts | 163° |
| 2026-04-19 09:20 | 29.19074 | 115.80198 | 12290 ft | 407 kts | 163° |
| 2026-04-19 09:20 | 29.16377 | 115.81129 | 11670 ft | 404 kts | 163° |
| 2026-04-19 09:20 | 29.13696 | 115.82054 | 11073 ft | 399 kts | 163° |
| 2026-04-19 09:20 | 29.11021 | 115.82690 | 10608 ft | 388 kts | 177° |
| 2026-04-19 09:21 | 29.08420 | 115.82433 | 10475 ft | 367 kts | 195° |
| 2026-04-19 09:21 | 29.06068 | 115.81477 | 10349 ft | 348 kts | 204° |
| 2026-04-19 09:21 | 29.03895 | 115.80427 | 10227 ft | 331 kts | 204° |
| 2026-04-19 09:21 | 29.01818 | 115.79420 | 10103 ft | 317 kts | 204° |
| 2026-04-19 09:22 | 28.99830 | 115.78460 | 9978 ft | 303 kts | 204° |
| 2026-04-19 09:22 | 28.97915 | 115.77536 | 9846 ft | 300 kts | 204° |
| 2026-04-19 09:22 | 28.95996 | 115.76612 | 9483 ft | 300 kts | 204° |
| 2026-04-19 09:22 | 28.94071 | 115.75685 | 9100 ft | 298 kts | 205° |
| 2026-04-19 09:23 | 28.92167 | 115.74771 | 8730 ft | 296 kts | 204° |
| 2026-04-19 09:23 | 28.90283 | 115.73868 | 8343 ft | 293 kts | 204° |
| 2026-04-19 09:23 | 28.88413 | 115.72973 | 7973 ft | 290 kts | 204° |
| 2026-04-19 09:23 | 28.86578 | 115.72086 | 7611 ft | 287 kts | 204° |
| 2026-04-19 09:24 | 28.84753 | 115.71205 | 7249 ft | 285 kts | 204° |
| 2026-04-19 09:24 | 28.82933 | 115.70329 | 6969 ft | 282 kts | 204° |
| 2026-04-19 09:24 | 28.81133 | 115.69464 | 6902 ft | 281 kts | 204° |
| 2026-04-19 09:24 | 28.79368 | 115.68616 | 6890 ft | 269 kts | 204° |
| 2026-04-19 09:25 | 28.78249 | 115.68080 | 6821 ft | 261 kts | 204° |
| 2026-04-19 09:25 | 28.76822 | 115.67395 | 6623 ft | 256 kts | 204° |
| 2026-04-19 09:25 | 28.75203 | 115.66619 | 6387 ft | 250 kts | 204° |
| 2026-04-19 09:25 | 28.73618 | 115.65861 | 6140 ft | 244 kts | 204° |
| 2026-04-19 09:26 | 28.72071 | 115.65119 | 5927 ft | 236 kts | 204° |
| 2026-04-19 09:26 | 28.70584 | 115.64415 | 5899 ft | 231 kts | 204° |
| 2026-04-19 09:26 | 28.69099 | 115.63705 | 5900 ft | 232 kts | 204° |
| 2026-04-19 09:26 | 28.67588 | 115.63051 | 5894 ft | 233 kts | 196° |
| 2026-04-19 09:27 | 28.65975 | 115.63036 | 5901 ft | 236 kts | 165° |
| 2026-04-19 09:27 | 28.64604 | 115.64035 | 5904 ft | 238 kts | 130° |
| 2026-04-19 09:27 | 28.63797 | 115.65671 | 5905 ft | 238 kts | 113° |
| 2026-04-19 09:27 | 28.63176 | 115.67390 | 5895 ft | 229 kts | 112° |
| 2026-04-19 09:28 | 28.62625 | 115.69035 | 5878 ft | 215 kts | 105° |
| 2026-04-19 09:28 | 28.62733 | 115.70667 | 5908 ft | 207 kts | 67° |
| 2026-04-19 09:28 | 28.63298 | 115.72121 | 5722 ft | 203 kts | 64° |
| 2026-04-19 09:28 | 28.63900 | 115.73606 | 5338 ft | 209 kts | 65° |
| 2026-04-19 09:29 | 28.64491 | 115.75116 | 5066 ft | 208 kts | 67° |
| 2026-04-19 09:29 | 28.65073 | 115.76636 | 4794 ft | 207 kts | 68° |
| 2026-04-19 09:29 | 28.65636 | 115.78121 | 4471 ft | 208 kts | 68° |
| 2026-04-19 09:29 | 28.66218 | 115.79630 | 4180 ft | 208 kts | 66° |
| 2026-04-19 09:30 | 28.67140 | 115.80884 | 3878 ft | 209 kts | 32° |
| 2026-04-19 09:30 | 28.68447 | 115.81582 | 3680 ft | 206 kts | 22° |
| 2026-04-19 09:30 | 28.69764 | 115.82191 | 3454 ft | 203 kts | 23° |
| 2026-04-19 09:30 | 28.71064 | 115.82808 | 3222 ft | 200 kts | 23° |
| 2026-04-19 09:31 | 28.72330 | 115.83415 | 3000 ft | 196 kts | 23° |
| 2026-04-19 09:31 | 28.73578 | 115.84018 | 2663 ft | 192 kts | 24° |
| 2026-04-19 09:31 | 28.74391 | 115.84410 | 2361 ft | 192 kts | 24° |
| 2026-04-19 09:31 | 28.75992 | 115.85200 | 2013 ft | 180 kts | 25° |
| 2026-04-19 09:32 | 28.76730 | 115.85584 | 1858 ft | 171 kts | 26° |
| 2026-04-19 09:32 | 28.77785 | 115.86129 | 1626 ft | 164 kts | 25° |
| 2026-04-19 09:32 | 28.78821 | 115.86637 | 1407 ft | 162 kts | 25° |
| 2026-04-19 09:32 | 28.79838 | 115.87119 | 1225 ft | 155 kts | 24° |
| 2026-04-19 09:33 | 28.80837 | 115.87537 | 978 ft | 148 kts | 19° |
| 2026-04-19 09:33 | 28.81762 | 115.87984 | 806 ft | 142 kts | 27° |
| 2026-04-19 09:33 | 28.82667 | 115.88422 | 640 ft | 141 kts | 26° |
| 2026-04-19 09:33 | 28.83575 | 115.88861 | 479 ft | 142 kts | 24° |
| 2026-04-19 09:34 | 28.84484 | 115.89300 | 324 ft | 141 kts | 23° |
| 2026-04-19 09:34 | 28.85386 | 115.89722 | 171 ft | 139 kts | 23° |
| 2026-04-19 09:34 | 28.86233 | 115.90130 | 224 ft | 128 kts | 24° |
| 2026-04-19 09:34 | 28.87189 | 115.90606 | 686 ft | 172 kts | 25° |
| 2026-04-19 09:35 | 28.88413 | 115.91250 | 1383 ft | 213 kts | 26° |
| 2026-04-19 09:35 | 28.89846 | 115.91983 | 2235 ft | 230 kts | 24° |
| 2026-04-19 09:35 | 28.91271 | 115.92672 | 2346 ft | 224 kts | 23° |
| 2026-04-19 09:35 | 28.92766 | 115.93376 | 2499 ft | 244 kts | 23° |
| 2026-04-19 09:36 | 28.94405 | 115.94146 | 3028 ft | 261 kts | 23° |
| 2026-04-19 09:36 | 28.96066 | 115.94939 | 4143 ft | 252 kts | 23° |
| 2026-04-19 09:36 | 28.97686 | 115.95438 | 5072 ft | 236 kts | 358° |
| 2026-04-19 09:36 | 28.99192 | 115.94874 | 5644 ft | 228 kts | 321° |
| 2026-04-19 09:37 | 29.00054 | 115.93415 | 5877 ft | 224 kts | 283° |
| 2026-04-19 09:37 | 28.99906 | 115.91692 | 5910 ft | 223 kts | 244° |
| 2026-04-19 09:37 | 28.98891 | 115.90356 | 5917 ft | 226 kts | 222° |
| 2026-04-19 09:37 | 28.97773 | 115.89077 | 5909 ft | 228 kts | 230° |
| 2026-04-19 09:38 | 28.96812 | 115.87627 | 5908 ft | 228 kts | 237° |
| 2026-04-19 09:38 | 28.95979 | 115.86094 | 5905 ft | 228 kts | 241° |
| 2026-04-19 09:38 | 28.95123 | 115.84537 | 5911 ft | 242 kts | 232° |
| 2026-04-19 09:38 | 28.93845 | 115.83176 | 5923 ft | 266 kts | 218° |
| 2026-04-19 09:39 | 28.92279 | 115.81931 | 5909 ft | 273 kts | 215° |
| 2026-04-19 09:39 | 28.90685 | 115.80732 | 5907 ft | 274 kts | 214° |
| 2026-04-19 09:39 | 28.89094 | 115.79542 | 5901 ft | 273 kts | 214° |
| 2026-04-19 09:39 | 28.87527 | 115.78374 | 5737 ft | 274 kts | 214° |
| 2026-04-19 09:40 | 28.85939 | 115.77192 | 5449 ft | 272 kts | 213° |
| 2026-04-19 09:40 | 28.84353 | 115.76015 | 5145 ft | 271 kts | 213° |
| 2026-04-19 09:40 | 28.82663 | 115.75078 | 4862 ft | 271 kts | 199° |
| 2026-04-19 09:40 | 28.80902 | 115.74324 | 4566 ft | 269 kts | 203° |
| 2026-04-19 09:41 | 28.79196 | 115.73439 | 4267 ft | 268 kts | 205° |
| 2026-04-19 09:41 | 28.77516 | 115.72534 | 3971 ft | 267 kts | 205° |
| 2026-04-19 09:41 | 28.75843 | 115.71627 | 3685 ft | 266 kts | 205° |
| 2026-04-19 09:41 | 28.74176 | 115.70723 | 3401 ft | 263 kts | 205° |
| 2026-04-19 09:42 | 28.72538 | 115.69833 | 3093 ft | 256 kts | 205° |
| 2026-04-19 09:42 | 28.70944 | 115.68967 | 2809 ft | 252 kts | 205° |
| 2026-04-19 09:42 | 28.69371 | 115.68115 | 2503 ft | 248 kts | 205° |
| 2026-04-19 09:42 | 28.67769 | 115.67525 | 2385 ft | 236 kts | 188° |
| 2026-04-19 09:43 | 28.66189 | 115.67541 | 2356 ft | 220 kts | 168° |
| 2026-04-19 09:43 | 28.64857 | 115.68193 | 2335 ft | 206 kts | 145° |
| 2026-04-19 09:43 | 28.63914 | 115.69362 | 2297 ft | 193 kts | 120° |
| 2026-04-19 09:43 | 28.63731 | 115.70756 | 2310 ft | 176 kts | 78° |
| 2026-04-19 09:44 | 28.64098 | 115.72064 | 2306 ft | 173 kts | 72° |
| 2026-04-19 09:44 | 28.64500 | 115.73363 | 2304 ft | 175 kts | 73° |
| 2026-04-19 09:44 | 28.64900 | 115.74721 | 2300 ft | 188 kts | 73° |
| 2026-04-19 09:44 | 28.65314 | 115.76166 | 2298 ft | 193 kts | 73° |
| 2026-04-19 09:45 | 28.65727 | 115.77621 | 2304 ft | 194 kts | 74° |
| 2026-04-19 09:45 | 28.66138 | 115.79076 | 2307 ft | 193 kts | 75° |
| 2026-04-19 09:45 | 28.66723 | 115.80450 | 2293 ft | 195 kts | 51° |
| 2026-04-19 09:45 | 28.67843 | 115.81312 | 2314 ft | 196 kts | 24° |
| 2026-04-19 09:46 | 28.69086 | 115.81896 | 2288 ft | 188 kts | 22° |
| 2026-04-19 09:46 | 28.70251 | 115.82432 | 2324 ft | 178 kts | 23° |
| 2026-04-19 09:46 | 28.71393 | 115.82970 | 2302 ft | 177 kts | 24° |
| 2026-04-19 09:46 | 28.72536 | 115.83517 | 2306 ft | 179 kts | 24° |
| 2026-04-19 09:47 | 28.73681 | 115.84068 | 2309 ft | 179 kts | 25° |
| 2026-04-19 09:47 | 28.74816 | 115.84619 | 2312 ft | 171 kts | 25° |
| 2026-04-19 09:47 | 28.75882 | 115.85131 | 2187 ft | 163 kts | 24° |
| 2026-04-19 09:47 | 28.76924 | 115.85631 | 1922 ft | 161 kts | 23° |
| 2026-04-19 09:48 | 28.77940 | 115.86104 | 1675 ft | 155 kts | 23° |
| 2026-04-19 09:48 | 28.78923 | 115.86561 | 1411 ft | 150 kts | 25° |
| 2026-04-19 09:48 | 28.79837 | 115.87017 | 1236 ft | 142 kts | 26° |
| 2026-04-19 09:48 | 28.80740 | 115.87473 | 1039 ft | 142 kts | 26° |
| 2026-04-19 09:49 | 28.81649 | 115.87915 | 855 ft | 143 kts | 25° |
| 2026-04-19 09:49 | 28.82558 | 115.88347 | 670 ft | 140 kts | 25° |
| 2026-04-19 09:49 | 28.83451 | 115.88786 | 522 ft | 140 kts | 24° |
| 2026-04-19 09:49 | 28.84344 | 115.89218 | 364 ft | 140 kts | 23° |
| 2026-04-19 09:50 | 28.85236 | 115.89656 | 176 ft | 139 kts | 25° |
| 2026-04-19 09:50 | 28.86044 | 115.90051 | 151 ft | 100 kts | 23° |
| 2026-04-19 09:50 | 28.86416 | 115.90231 | 152 ft | 17 kts | 22° |
| 2026-04-19 09:50 | 28.86435 | 115.90239 | 152 ft | 5 kts | 22° |
| 2026-04-19 09:51 | 28.86511 | 115.90276 | 153 ft | 19 kts | 22° |
| 2026-04-19 09:51 | 28.86667 | 115.90355 | 154 ft | 29 kts | 31° |
| 2026-04-19 09:51 | 28.86785 | 115.90469 | 154 ft | 22 kts | 46° |
| 2026-04-19 09:51 | 28.86874 | 115.90604 | 149 ft | 21 kts | 58° |
| 2026-04-19 09:52 | 28.86991 | 115.90719 | 148 ft | 21 kts | 26° |
| 2026-04-19 09:52 | 28.87036 | 115.90759 | 148 ft | 5 kts | 71° |
| 2026-04-19 09:52 | 28.87026 | 115.90817 | 147 ft | 9 kts | 115° |
| 2026-04-19 09:52 | 28.86993 | 115.90896 | 147 ft | 13 kts | 115° |
| 2026-04-19 09:53 | 28.86950 | 115.90994 | 147 ft | 11 kts | 130° |
| 2026-04-19 09:53 | 28.86889 | 115.91010 | 147 ft | 10 kts | 179° |
| 2026-04-19 09:53 | 28.86816 | 115.91014 | 147 ft | 10 kts | 175° |
| 2026-04-19 09:53 | 28.86797 | 115.91016 | 147 ft | 0 kts | 176° |
| 2026-04-19 09:54 | 28.86794 | 115.91016 | 147 ft | 1 kts | 176° |
| 2026-04-19 09:54 | 28.86777 | 115.91017 | 147 ft | 0 kts | 176° |